North Windham, CT (06256)

3:54 AM EDT on August 31, 2015 (GMT -0400)
Charles H. Barrows STEM Academy | | Change Station
CLOSE
Current Station
Personal Weather Station
Location: Windham, CT
Elevation: 361 ft
Nearby Weather Stations

Elev 361 ft 41.72 °N, 72.18 °W | Updated 9 minutes ago

Fog
Fog
65.8 °F
Feels Like 65.8 °F
N
0.0
Wind Variable Wind from WSW

Today
High -- | Low -- °F
--% Chance of Precip.
Yesterday
High -- | Low -- °F
Precip. -- in
6:13 AM 7:23 PM
Waning Gibbous, 96% visible
Pressure 30.01 in
Visibility 0.5 miles
Clouds
Dew Point 64 °F
Humidity 93%
Rainfall in
Snow Depth Not available.
UV Not available.
Pollen 10.00 out of 12
Air Quality Not available.
Flu Activity Not available.
METAR KIJD 310713Z AUTO 00000KT 1/2SM FG VV002 19/18 A3001 RMK AO2 T01940183
Pressure 30.01 in
Visibility 0.5 miles
Clouds
Dew Point 64 °F
Humidity 93%
Rainfall in
Snow Depth Not available.
UV Not available.
Pollen 10.00 out of 12
Air Quality Not available.
Flu Activity Not available.
METAR KIJD 310713Z AUTO 00000KT 1/2SM FG VV002 19/18 A3001 RMK AO2 T01940183

10-Day Weather Forecast

×

Almanac

Astronomy

Aug. 31, 2015 Rise Set
Actual Time
Civil Twilight
Nautical Twilight
Astronomical Twilight
Moon
Length of Visible Light
Length of Day
Tomorrow will be .
, % of the Moon is Illuminated

Today's Extremes

State Highs State Lows

Community

WunderPhotos

Upload Photos

1,851,220 photos uploaded!

WunderBlogs® & News

Nearby

Air Quality

  Air Quality AQ Index Pollutant
Not available.

Snow Depth

Station Depth Elevation

Earthquake Activity

City Distance Mag. Time & Date
Minimum magnitude displayed is 2.5.

Coastal Water Temperatures

Place Temperature

Stations

Nearby Weather Stations

Station Location Temp. Windchill Dew Point Humidity Wind Precip. Elev Updated Type